To NAV CANADA Home Page Login to a new session Search on AWWS site Feedback and Comments Disclaimer Vers la page française équivalente Tips FAQ What's new on the site To the Forecasts and Observations / NOTAM section To "File a Flight Plan" website Publications and other links Update of the User's profile FIC Telephone Numbers My Weather Data Folder Route Weather Data Regional Weather Data Local Weather Data To the Forecasts and Observations / NOTAM section
Request Generated 03/30/2015 at 10:36:03 UTC . Weather information available at that time is displayed.

METAR/TAF

CLYDE RIVER/NU    (show WxCam)

METAR CYCY 301000Z AUTO 25003KT 9SM CLR M30/M33 A2954 RMK SLP007=
METAR CYCY 300900Z AUTO 27003KT 9SM CLR M30/M34 A2954 RMK SLP007=
METAR CYCY 300800Z AUTO 26004KT 9SM CLR M29/M32 A2954 RMK SLP008=

TAF CYCY 300638Z 3007/3019 28008KT P6SM FEW030 TEMPO 3007/3019 4SM IC
BR
RMK FCST BASED ON AUTO OBS. NXT FCST BY 301300Z=
Your time UTC time
Weather data provided by Environment Canada and NAV CANADA